Time;durP1;ratioP1;P1;durP2;ratioP2;P2;SDS_P1;SDS_P2;PMS_P1;PMS_P2;Temp;Humidity;BMP_temperature;BMP_pressure;BME280_temperature;BME280_humidity;BME280_pressure;Samples;Min_cycle;Max_cycle;Signal;HPM_P1;HPM_P2
2023/05/30 00:00:33;;;;;;;3.42;3.13;;;17.80;99.90;;;;;;5099306;28;20284;-68
2023/05/30 00:03:00;;;;;;;3.95;3.55;;;17.80;99.90;;;;;;5103956;27;20220;-68
2023/05/30 00:05:27;;;;;;;3.38;3.08;;;17.80;99.90;;;;;;5097788;27;20196;-68
2023/05/30 00:07:54;;;;;;;4.05;3.67;;;17.80;99.90;;;;;;5099544;28;20201;-68
2023/05/30 00:10:23;;;;;;;4.45;4.05;;;17.70;99.90;;;;;;5097467;28;20387;-68
2023/05/30 00:12:50;;;;;;;5.20;4.35;;;17.50;99.90;;;;;;5096624;27;20312;-68
2023/05/30 00:15:18;;;;;;;3.92;3.63;;;17.40;99.90;;;;;;5099420;28;20197;-68
2023/05/30 00:17:45;;;;;;;3.90;3.60;;;17.30;99.90;;;;;;5097868;28;20280;-68
2023/05/30 00:20:13;;;;;;;4.25;3.85;;;17.30;99.90;;;;;;5100548;27;20199;-68
2023/05/30 00:22:41;;;;;;;3.70;3.40;;;17.30;99.90;;;;;;5104174;28;20689;-68
2023/05/30 00:25:09;;;;;;;3.65;3.35;;;17.30;99.90;;;;;;5116852;27;20229;-68
2023/05/30 00:27:38;;;;;;;3.95;3.65;;;17.30;99.90;;;;;;5100338;27;20215;-68
2023/05/30 00:30:06;;;;;;;4.55;4.10;;;17.20;99.90;;;;;;5099864;27;20319;-68
2023/05/30 00:32:34;;;;;;;3.90;3.60;;;17.20;99.90;;;;;;5095545;28;20466;-68
2023/05/30 00:35:01;;;;;;;3.75;3.45;;;17.10;99.90;;;;;;5105069;27;20201;-68
2023/05/30 00:37:28;;;;;;;4.07;3.65;;;17.10;99.90;;;;;;5100056;27;20501;-68
2023/05/30 00:39:55;;;;;;;3.83;3.42;;;17.10;99.90;;;;;;5102390;27;20258;-68
2023/05/30 00:42:22;;;;;;;4.40;4.00;;;17.20;99.90;;;;;;5104179;27;20304;-68
2023/05/30 00:44:50;;;;;;;3.92;3.63;;;17.20;99.90;;;;;;5103419;27;20237;-68
2023/05/30 00:47:18;;;;;;;3.80;3.50;;;17.20;99.90;;;;;;5098443;28;20204;-68
2023/05/30 00:49:45;;;;;;;4.25;3.85;;;17.20;99.90;;;;;;5099210;27;20322;-68
2023/05/30 00:52:13;;;;;;;4.40;4.00;;;17.20;99.90;;;;;;5104481;27;20302;-68
2023/05/30 00:54:46;;;;;;;3.72;3.42;;;17.10;99.90;;;;;;5096739;27;20237;-68
2023/05/30 00:57:14;;;;;;;3.92;3.58;;;17.10;99.90;;;;;;5099359;27;20293;-68
2023/05/30 00:59:42;;;;;;;3.90;3.60;;;17.10;99.90;;;;;;5101468;27;20716;-68
2023/05/30 01:02:11;;;;;;;3.92;3.55;;;17.10;99.90;;;;;;5103778;27;20205;-68
2023/05/30 01:04:38;;;;;;;4.25;3.85;;;17.10;99.90;;;;;;5102172;28;20292;-68
2023/05/30 01:07:07;;;;;;;3.78;3.47;;;17.10;99.90;;;;;;5095811;27;20300;-68
2023/05/30 01:09:34;;;;;;;4.28;3.88;;;17.20;99.90;;;;;;5101199;27;20201;-68
2023/05/30 01:12:14;;;;;;;4.72;3.85;;;17.20;99.90;;;;;;5099737;27;20283;-68
2023/05/30 01:14:47;;;;;;;3.67;3.38;;;17.10;99.90;;;;;;5100299;27;20288;-68
2023/05/30 01:17:22;;;;;;;4.60;4.20;;;17.10;99.90;;;;;;5098375;27;20283;-68
2023/05/30 01:20:07;;;;;;;4.05;3.70;;;17.00;99.90;;;;;;5100578;27;20837;-68
2023/05/30 01:22:50;;;;;;;3.85;3.53;;;17.00;99.90;;;;;;5099071;27;20224;-68
2023/05/30 01:25:27;;;;;;;3.80;3.50;;;16.90;99.90;;;;;;5099877;27;20228;-68
2023/05/30 01:28:07;;;;;;;3.88;3.58;;;16.90;99.90;;;;;;5097554;28;20621;-68
2023/05/30 01:30:38;;;;;;;4.22;3.70;;;16.80;99.90;;;;;;5102033;27;20695;-68
2023/05/30 01:33:06;;;;;;;3.85;3.55;;;16.80;99.90;;;;;;5096308;27;20220;-68
2023/05/30 01:35:33;;;;;;;3.88;3.50;;;16.80;99.90;;;;;;5096112;28;20236;-68
2023/05/30 01:38:00;;;;;;;3.72;3.42;;;16.80;99.90;;;;;;5098801;28;20696;-68
2023/05/30 01:40:28;;;;;;;3.90;3.60;;;16.80;99.90;;;;;;5100732;27;20238;-68
2023/05/30 01:43:00;;;;;;;3.63;3.33;;;16.90;99.90;;;;;;5094810;28;20777;-68
2023/05/30 01:45:40;;;;;;;3.75;3.40;;;16.90;99.90;;;;;;5098283;28;20225;-68
2023/05/30 01:48:14;;;;;;;3.70;3.40;;;16.90;99.90;;;;;;5099629;28;20708;-68
2023/05/30 01:50:45;;;;;;;3.60;3.30;;;16.90;99.90;;;;;;5080018;28;20217;-68
2023/05/30 01:53:18;;;;;;;3.65;3.35;;;16.90;99.90;;;;;;5097206;27;20217;-68
2023/05/30 01:55:46;;;;;;;4.00;3.60;;;16.90;99.90;;;;;;5103726;27;20229;-68
2023/05/30 01:58:19;;;;;;;3.83;3.53;;;16.90;99.90;;;;;;5100089;28;20848;-68
2023/05/30 02:00:48;;;;;;;3.88;3.58;;;16.90;99.90;;;;;;5096570;27;20247;-68
2023/05/30 02:03:16;;;;;;;3.35;3.05;;;16.90;99.90;;;;;;5101435;27;20232;-68
2023/05/30 02:05:43;;;;;;;3.83;3.50;;;16.90;99.90;;;;;;5101692;27;20278;-68
2023/05/30 02:08:10;;;;;;;3.67;3.38;;;16.90;99.90;;;;;;5100075;28;20831;-68
2023/05/30 02:10:38;;;;;;;3.92;3.53;;;16.90;99.90;;;;;;5093282;28;20210;-68
2023/05/30 02:13:05;;;;;;;3.50;3.20;;;16.90;99.90;;;;;;5096744;27;20307;-68
2023/05/30 02:15:32;;;;;;;4.22;3.58;;;16.90;99.90;;;;;;5099463;27;20201;-68
2023/05/30 02:18:01;;;;;;;3.50;3.20;;;16.90;99.90;;;;;;5103145;27;20235;-68
2023/05/30 02:20:28;;;;;;;3.72;3.42;;;16.90;99.90;;;;;;5094668;28;21080;-68
2023/05/30 02:22:55;;;;;;;4.03;3.72;;;16.90;99.90;;;;;;5096041;28;20309;-68
2023/05/30 02:25:23;;;;;;;3.50;3.20;;;16.80;99.90;;;;;;5104887;27;20286;-68
2023/05/30 02:27:51;;;;;;;4.05;3.75;;;16.80;99.90;;;;;;5102754;27;20545;-68
2023/05/30 02:30:18;;;;;;;4.13;3.83;;;16.80;99.90;;;;;;5096628;27;20300;-68
2023/05/30 02:32:45;;;;;;;3.63;3.33;;;16.80;99.90;;;;;;5092980;28;20249;-68
2023/05/30 02:35:14;;;;;;;3.88;3.55;;;16.80;99.90;;;;;;5100131;27;20613;-68
2023/05/30 02:37:41;;;;;;;3.72;3.42;;;16.70;99.90;;;;;;5094906;28;20221;-68
2023/05/30 02:40:10;;;;;;;3.75;3.45;;;16.70;99.90;;;;;;5097005;28;20205;-68
2023/05/30 02:42:38;;;;;;;3.72;3.42;;;16.70;99.90;;;;;;5098897;28;20782;-68
2023/05/30 02:45:06;;;;;;;4.03;3.63;;;16.70;99.90;;;;;;5099179;28;20243;-68
2023/05/30 02:47:33;;;;;;;3.85;3.45;;;16.60;99.90;;;;;;5095557;28;20229;-68
2023/05/30 02:50:00;;;;;;;3.75;3.45;;;16.60;99.90;;;;;;5101954;28;20225;-68
2023/05/30 02:52:30;;;;;;;3.63;3.33;;;16.60;99.90;;;;;;5100246;28;20255;-68
2023/05/30 02:54:57;;;;;;;3.53;3.22;;;16.60;99.90;;;;;;5098553;28;20217;-68
2023/05/30 02:57:24;;;;;;;3.53;3.20;;;16.60;99.90;;;;;;5098137;28;20313;-68
2023/05/30 02:59:52;;;;;;;3.60;3.30;;;16.50;99.90;;;;;;5105220;28;20255;-68
2023/05/30 03:02:19;;;;;;;3.38;3.08;;;16.50;99.90;;;;;;5103457;28;20193;-68
2023/05/30 03:04:46;;;;;;;3.80;3.50;;;16.40;99.90;;;;;;5095944;28;20288;-68
2023/05/30 03:07:15;;;;;;;3.50;3.20;;;16.40;99.90;;;;;;5095086;28;20201;-68
2023/05/30 03:09:43;;;;;;;3.50;3.20;;;16.40;99.90;;;;;;5096357;28;20610;-68
2023/05/30 03:12:10;;;;;;;3.65;3.35;;;16.40;99.90;;;;;;5101730;28;20272;-68
2023/05/30 03:14:37;;;;;;;3.38;3.08;;;16.30;99.90;;;;;;5095851;28;20278;-68
2023/05/30 03:17:06;;;;;;;3.63;3.33;;;16.30;99.90;;;;;;5100104;28;20559;-68
2023/05/30 03:19:33;;;;;;;4.10;3.80;;;16.20;99.90;;;;;;5101150;28;20201;-67
2023/05/30 03:22:01;;;;;;;4.22;3.92;;;16.20;99.90;;;;;;5099862;28;20193;-68
2023/05/30 03:24:29;;;;;;;3.65;3.35;;;16.10;99.90;;;;;;5097696;28;20831;-68
2023/05/30 03:26:57;;;;;;;3.45;3.15;;;16.10;99.90;;;;;;5098447;28;20227;-68
2023/05/30 03:29:24;;;;;;;4.60;3.50;;;16.00;99.90;;;;;;5102557;27;20287;-68
2023/05/30 03:31:51;;;;;;;3.92;3.55;;;16.00;99.90;;;;;;5096966;27;20304;-68
2023/05/30 03:34:19;;;;;;;3.90;3.60;;;16.00;99.90;;;;;;5096458;27;20773;-68
2023/05/30 03:36:46;;;;;;;4.25;3.95;;;16.00;99.90;;;;;;5102415;27;20232;-68
2023/05/30 03:39:13;;;;;;;4.65;4.15;;;15.90;99.90;;;;;;5100921;27;20197;-68
2023/05/30 03:41:41;;;;;;;3.78;3.40;;;15.80;99.90;;;;;;5096182;27;20393;-68
2023/05/30 03:44:09;;;;;;;4.00;3.50;;;15.80;99.90;;;;;;5101082;27;20305;-68
2023/05/30 03:46:36;;;;;;;4.53;4.13;;;15.70;99.90;;;;;;5104125;28;20797;-68
2023/05/30 03:49:03;;;;;;;4.20;3.60;;;15.60;99.90;;;;;;5096815;27;20297;-68
2023/05/30 03:51:30;;;;;;;4.10;3.80;;;15.60;99.90;;;;;;5099884;27;20217;-68
2023/05/30 03:53:58;;;;;;;4.05;3.67;;;15.60;99.90;;;;;;5104376;27;20626;-68
2023/05/30 03:56:25;;;;;;;3.22;3.03;;;15.60;99.90;;;;;;5107079;27;20688;-68
2023/05/30 03:58:52;;;;;;;4.30;3.90;;;15.60;99.90;;;;;;5094581;27;20197;-68
2023/05/30 04:01:22;;;;;;;3.85;3.55;;;15.70;99.90;;;;;;5098575;28;20300;-68
2023/05/30 04:03:49;;;;;;;4.05;3.75;;;15.70;99.90;;;;;;5098390;28;20225;-68
2023/05/30 04:06:17;;;;;;;3.92;3.53;;;15.70;99.90;;;;;;5105382;27;20232;-68
2023/05/30 04:08:44;;;;;;;3.83;3.53;;;15.70;99.90;;;;;;5101574;27;20639;-68
2023/05/30 04:11:11;;;;;;;3.95;3.55;;;15.70;99.90;;;;;;5103186;28;20213;-68
2023/05/30 04:13:38;;;;;;;4.10;3.70;;;15.70;99.90;;;;;;5098114;28;20252;-68
2023/05/30 04:16:05;;;;;;;3.42;3.15;;;15.70;99.90;;;;;;5107851;27;20757;-68
2023/05/30 04:18:36;;;;;;;3.72;3.42;;;15.70;99.90;;;;;;5100407;27;20687;-68
2023/05/30 04:21:03;;;;;;;3.78;3.47;;;15.80;99.90;;;;;;5099028;28;20429;-67
2023/05/30 04:23:30;;;;;;;3.85;3.55;;;16.00;99.90;;;;;;5103243;27;20776;-68
2023/05/30 04:25:57;;;;;;;3.83;3.53;;;16.30;99.90;;;;;;5104545;27;20698;-68
2023/05/30 04:28:27;;;;;;;3.75;3.45;;;16.50;99.90;;;;;;5105000;27;20344;-69
2023/05/30 04:30:56;;;;;;;4.20;3.80;;;16.80;99.90;;;;;;5102092;27;20518;-69
2023/05/30 04:33:24;;;;;;;4.45;4.05;;;17.00;99.90;;;;;;5102862;27;20224;-69
2023/05/30 04:35:53;;;;;;;4.28;3.88;;;17.00;99.90;;;;;;5098516;28;20202;-69
2023/05/30 04:38:21;;;;;;;4.25;3.95;;;17.00;99.90;;;;;;5096828;28;20556;-68
2023/05/30 04:40:49;;;;;;;3.97;3.67;;;17.00;99.90;;;;;;5095302;28;20197;-69
2023/05/30 04:43:19;;;;;;;3.95;3.65;;;17.10;99.90;;;;;;5103523;27;20220;-69
2023/05/30 04:45:47;;;;;;;3.78;3.47;;;17.10;99.90;;;;;;5095340;27;20229;-69
2023/05/30 04:48:16;;;;;;;3.75;3.40;;;17.30;99.90;;;;;;5095116;27;20219;-69
2023/05/30 04:50:46;;;;;;;4.28;3.88;;;17.40;99.90;;;;;;5100820;27;20214;-69
2023/05/30 04:53:15;;;;;;;4.10;3.80;;;17.30;99.90;;;;;;5098211;27;20316;-70
2023/05/30 04:55:43;;;;;;;4.13;3.72;;;17.40;99.90;;;;;;5100580;27;20201;-69
2023/05/30 04:58:11;;;;;;;3.78;3.47;;;17.40;99.90;;;;;;5101907;27;20576;-69
2023/05/30 05:00:38;;;;;;;4.20;3.80;;;17.40;99.90;;;;;;5096189;27;20204;-69
2023/05/30 05:03:07;;;;;;;3.70;3.40;;;17.50;99.90;;;;;;5101374;27;20262;-69
2023/05/30 05:05:34;;;;;;;4.40;4.00;;;17.50;99.90;;;;;;5097894;28;20282;-69
2023/05/30 05:08:01;;;;;;;4.10;3.47;;;17.70;99.90;;;;;;5101429;27;20270;-69
2023/05/30 05:10:29;;;;;;;3.60;3.30;;;17.80;99.90;;;;;;5097963;28;20362;-69
2023/05/30 05:12:56;;;;;;;5.25;4.63;;;17.90;99.90;;;;;;5098181;28;20396;-69
2023/05/30 05:15:24;;;;;;;4.95;4.45;;;17.90;99.90;;;;;;5102473;28;20280;-70
2023/05/30 05:17:51;;;;;;;4.28;3.97;;;17.90;99.90;;;;;;5099321;28;20279;-69
2023/05/30 05:20:18;;;;;;;5.78;4.22;;;17.70;99.90;;;;;;5099495;28;20632;-69
2023/05/30 05:22:45;;;;;;;5.07;4.25;;;17.50;99.90;;;;;;5097769;28;20245;-70
2023/05/30 05:25:12;;;;;;;4.93;4.50;;;17.50;99.90;;;;;;5100930;27;20228;-69
2023/05/30 05:27:42;;;;;;;6.53;5.22;;;17.60;99.90;;;;;;5100403;27;20265;-70
2023/05/30 05:30:10;;;;;;;5.47;4.38;;;17.70;99.90;;;;;;5101351;28;20204;-69
2023/05/30 05:32:38;;;;;;;5.07;4.32;;;17.60;99.90;;;;;;5096341;28;20221;-69
2023/05/30 05:35:07;;;;;;;5.28;4.50;;;17.60;99.90;;;;;;5087770;28;20212;-69
2023/05/30 05:37:34;;;;;;;5.07;4.22;;;17.60;99.90;;;;;;5095048;28;20202;-69
2023/05/30 05:40:04;;;;;;;4.90;4.50;;;17.60;99.90;;;;;;5095667;28;20207;-69
2023/05/30 05:42:31;;;;;;;6.40;4.75;;;17.50;99.90;;;;;;5098177;28;20581;-69
2023/05/30 05:45:00;;;;;;;4.60;4.20;;;17.40;99.90;;;;;;5097442;28;20233;-69
2023/05/30 05:47:27;;;;;;;4.63;4.22;;;17.50;99.90;;;;;;5098827;27;20205;-69
2023/05/30 05:49:54;;;;;;;4.93;4.43;;;17.50;99.90;;;;;;5099087;27;20232;-69
2023/05/30 05:52:22;;;;;;;4.50;4.00;;;17.60;99.90;;;;;;5097080;27;20298;-69
2023/05/30 05:54:48;;;;;;;4.53;4.13;;;17.70;99.90;;;;;;5103610;27;20284;-69
2023/05/30 05:57:16;;;;;;;4.47;4.07;;;17.80;99.90;;;;;;5099528;28;20851;-69
2023/05/30 05:59:43;;;;;;;4.70;4.30;;;17.90;99.90;;;;;;5100066;28;20205;-69
2023/05/30 06:02:12;;;;;;;4.90;4.50;;;17.90;99.90;;;;;;5099825;27;20296;-69
2023/05/30 06:04:39;;;;;;;4.80;4.40;;;18.00;99.90;;;;;;5102480;27;20205;-69
2023/05/30 06:07:06;;;;;;;4.72;4.32;;;18.20;99.90;;;;;;5096578;28;20321;-69
2023/05/30 06:09:34;;;;;;;4.93;4.43;;;18.30;99.90;;;;;;5103320;27;20224;-69
2023/05/30 06:12:02;;;;;;;5.10;4.60;;;18.30;99.90;;;;;;5105674;27;20282;-68
2023/05/30 06:14:29;;;;;;;4.85;4.45;;;18.40;99.90;;;;;;5111113;27;20201;-67
2023/05/30 06:16:56;;;;;;;5.05;4.55;;;18.50;99.90;;;;;;5107615;27;20224;-67
2023/05/30 06:19:26;;;;;;;4.88;4.38;;;18.70;99.90;;;;;;5098679;28;20291;-68
2023/05/30 06:21:53;;;;;;;4.75;4.35;;;18.70;99.90;;;;;;5100265;28;20229;-66
2023/05/30 06:24:20;;;;;;;4.80;4.40;;;18.80;99.90;;;;;;5104498;27;20744;-67
2023/05/30 06:26:47;;;;;;;4.53;4.13;;;19.00;99.90;;;;;;5099828;27;20224;-66
2023/05/30 06:29:14;;;;;;;5.03;4.53;;;19.30;99.90;;;;;;5106770;27;20205;-67
2023/05/30 06:31:41;;;;;;;4.80;4.40;;;19.40;99.90;;;;;;5104403;27;20274;-67
2023/05/30 06:34:08;;;;;;;6.03;5.25;;;19.40;99.90;;;;;;5100225;28;20332;-66
2023/05/30 06:36:37;;;;;;;5.53;5.03;;;19.40;99.90;;;;;;5099804;28;20580;-67
2023/05/30 06:39:04;;;;;;;4.85;4.45;;;19.30;99.90;;;;;;5098672;28;20292;-67
2023/05/30 06:41:31;;;;;;;4.80;4.38;;;19.30;99.90;;;;;;5094477;27;20284;-67
2023/05/30 06:43:58;;;;;;;5.50;4.78;;;19.50;99.90;;;;;;5100258;27;20239;-67
2023/05/30 06:46:25;;;;;;;5.55;5.05;;;19.70;99.90;;;;;;5099458;28;20642;-67
2023/05/30 06:48:52;;;;;;;5.18;4.72;;;19.80;99.90;;;;;;5100175;28;20213;-67
2023/05/30 06:51:19;;;;;;;5.13;4.63;;;19.80;99.90;;;;;;5097537;28;20269;-67
2023/05/30 06:53:47;;;;;;;5.60;4.88;;;19.80;99.90;;;;;;5098171;28;20253;-67
2023/05/30 06:56:15;;;;;;;5.45;4.80;;;19.80;99.90;;;;;;5096256;28;20642;-67
2023/05/30 06:58:42;;;;;;;6.07;5.00;;;19.80;99.90;;;;;;5102595;28;20241;-67
2023/05/30 07:01:10;;;;;;;5.20;4.70;;;19.80;99.90;;;;;;5100865;28;20553;-67
2023/05/30 07:03:37;;;;;;;5.22;4.72;;;19.60;99.90;;;;;;5097517;28;20217;-66
2023/05/30 07:06:04;;;;;;;5.22;4.72;;;19.70;99.90;;;;;;5103346;27;20232;-67
2023/05/30 07:08:31;;;;;;;6.90;5.05;;;19.60;99.90;;;;;;5100653;28;20201;-67
2023/05/30 07:11:00;;;;;;;5.18;4.68;;;19.60;99.90;;;;;;5101607;28;20232;-66
2023/05/30 07:13:27;;;;;;;5.50;5.00;;;19.60;99.90;;;;;;5098177;27;20217;-67
2023/05/30 07:15:54;;;;;;;6.20;4.60;;;19.50;99.90;;;;;;5100596;27;20196;-66
2023/05/30 07:18:22;;;;;;;5.82;5.22;;;19.50;99.90;;;;;;5099778;27;20204;-66
2023/05/30 07:20:49;;;;;;;4.70;4.28;;;19.60;99.90;;;;;;5100959;28;20232;-67
2023/05/30 07:23:16;;;;;;;5.38;4.88;;;19.80;99.90;;;;;;5099445;27;20303;-67
2023/05/30 07:25:43;;;;;;;6.28;5.43;;;19.90;99.90;;;;;;5104968;27;20284;-67
2023/05/30 07:28:12;;;;;;;5.47;4.97;;;20.00;99.90;;;;;;5099589;27;20244;-67
2023/05/30 07:30:39;;;;;;;5.20;4.70;;;20.10;99.90;;;;;;5099083;28;20589;-66
2023/05/30 07:33:06;;;;;;;5.60;5.10;;;20.10;99.90;;;;;;5100215;28;20316;-67
2023/05/30 07:35:33;;;;;;;6.60;5.05;;;20.40;99.90;;;;;;5101959;27;20233;-67
2023/05/30 07:38:00;;;;;;;4.95;4.55;;;20.50;99.90;;;;;;5106226;27;20284;-67
2023/05/30 07:40:27;;;;;;;5.50;5.00;;;20.60;99.90;;;;;;5098471;27;20288;-67
2023/05/30 07:42:54;;;;;;;5.88;5.28;;;20.80;99.90;;;;;;5097882;27;20241;-67
2023/05/30 07:45:23;;;;;;;5.65;5.15;;;20.80;99.90;;;;;;5103930;27;20204;-67
2023/05/30 07:47:50;;;;;;;5.72;4.95;;;20.70;99.90;;;;;;5102700;27;20225;-67
2023/05/30 07:50:17;;;;;;;5.50;5.00;;;20.90;99.90;;;;;;5101248;27;20236;-67
2023/05/30 07:52:44;;;;;;;5.47;4.97;;;21.10;99.90;;;;;;5100159;27;20750;-67
2023/05/30 07:55:11;;;;;;;5.65;5.05;;;21.20;99.90;;;;;;5103881;27;20285;-67
2023/05/30 07:57:38;;;;;;;5.45;4.95;;;21.50;99.90;;;;;;5100546;28;20591;-67
2023/05/30 08:00:08;;;;;;;5.30;4.80;;;21.80;99.90;;;;;;5100003;27;20282;-67
2023/05/30 08:02:36;;;;;;;5.07;4.68;;;22.00;99.90;;;;;;5102996;27;20209;-67
2023/05/30 08:05:04;;;;;;;4.97;4.45;;;22.30;99.90;;;;;;5099368;27;20325;-67
2023/05/30 08:07:32;;;;;;;5.50;5.00;;;22.40;99.90;;;;;;5097940;27;20292;-67
2023/05/30 08:09:59;;;;;;;6.10;5.53;;;22.30;99.90;;;;;;5102767;27;20796;-67
2023/05/30 08:12:29;;;;;;;5.53;5.03;;;22.20;99.90;;;;;;5100684;27;20251;-67
2023/05/30 08:14:56;;;;;;;9.30;5.07;;;22.20;99.90;;;;;;5097531;28;20731;-67
2023/05/30 08:17:25;;;;;;;5.95;5.35;;;22.20;99.90;;;;;;5098263;27;20211;-67
2023/05/30 08:19:53;;;;;;;5.78;5.25;;;22.10;99.90;;;;;;5103513;27;20292;-67
2023/05/30 08:22:21;;;;;;;5.80;4.93;;;21.90;99.90;;;;;;5100541;27;20203;-67
2023/05/30 08:24:50;;;;;;;5.72;4.93;;;21.80;99.90;;;;;;5098233;27;20200;-67
2023/05/30 08:27:17;;;;;;;5.28;4.78;;;21.90;99.90;;;;;;5104549;27;20695;-67
2023/05/30 08:29:44;;;;;;;6.18;5.65;;;22.00;99.90;;;;;;5097421;27;20387;-67
2023/05/30 08:32:11;;;;;;;5.35;4.85;;;22.20;99.90;;;;;;5100956;27;20328;-67
2023/05/30 08:34:38;;;;;;;6.00;5.40;;;22.30;99.90;;;;;;5099830;28;20814;-67
2023/05/30 08:37:07;;;;;;;5.32;4.85;;;22.40;99.90;;;;;;5100192;27;20292;-67
2023/05/30 08:39:34;;;;;;;5.32;4.82;;;22.70;99.90;;;;;;5102163;27;20287;-67
2023/05/30 08:42:01;;;;;;;6.85;4.85;;;23.10;99.90;;;;;;5101919;27;20200;-67
2023/05/30 08:44:29;;;;;;;6.13;4.88;;;23.30;99.90;;;;;;5101544;27;20698;-67
2023/05/30 08:46:57;;;;;;;5.63;5.13;;;23.70;99.90;;;;;;5099439;28;20215;-67
2023/05/30 08:49:25;;;;;;;5.75;5.25;;;24.00;99.90;;;;;;5098636;28;20236;-67
2023/05/30 08:51:53;;;;;;;5.57;5.07;;;24.20;99.90;;;;;;5101897;27;20201;-67
2023/05/30 08:54:24;;;;;;;6.43;5.00;;;24.20;99.90;;;;;;5098552;27;20246;-67
2023/05/30 08:56:59;;;;;;;6.20;5.03;;;24.00;99.90;;;;;;5101406;27;20205;-67
2023/05/30 08:59:27;;;;;;;7.00;5.75;;;23.70;99.90;;;;;;5097524;28;20273;-67
2023/05/30 09:01:56;;;;;;;6.53;5.93;;;23.40;99.90;;;;;;5102140;28;20211;-67
2023/05/30 09:04:24;;;;;;;5.78;5.28;;;23.20;99.90;;;;;;5095928;27;20698;-67
2023/05/30 09:06:54;;;;;;;5.53;5.00;;;23.20;99.90;;;;;;5093220;27;20197;-67
2023/05/30 09:09:23;;;;;;;6.10;5.45;;;23.20;99.90;;;;;;5097340;28;20505;-67
2023/05/30 09:11:52;;;;;;;5.35;4.85;;;23.20;99.90;;;;;;5098065;27;20208;-67
2023/05/30 09:14:19;;;;;;;6.05;5.07;;;23.30;99.90;;;;;;5102355;27;20244;-67
2023/05/30 09:16:46;;;;;;;6.70;5.82;;;23.70;99.90;;;;;;5098433;27;20225;-67
2023/05/30 09:19:13;;;;;;;7.00;5.68;;;23.80;99.90;;;;;;5103922;27;20259;-67
2023/05/30 09:21:41;;;;;;;5.40;4.90;;;23.80;99.90;;;;;;5097827;28;20205;-67
2023/05/30 09:24:08;;;;;;;5.47;4.95;;;23.80;99.90;;;;;;5097298;28;20221;-67
2023/05/30 09:26:37;;;;;;;5.50;5.03;;;24.00;99.90;;;;;;5102681;28;20288;-67
2023/05/30 09:29:10;;;;;;;5.65;5.15;;;24.20;99.90;;;;;;5100572;28;20211;-67
2023/05/30 09:31:38;;;;;;;6.10;5.50;;;24.60;99.90;;;;;;5101739;27;20649;-67
2023/05/30 09:34:06;;;;;;;5.30;4.80;;;24.90;99.90;;;;;;5107571;27;20229;-67
2023/05/30 09:36:33;;;;;;;5.63;5.13;;;25.10;99.90;;;;;;5121933;28;20225;-67
2023/05/30 09:39:04;;;;;;;5.15;4.70;;;25.30;99.90;;;;;;5101620;27;20283;-67
2023/05/30 09:41:32;;;;;;;6.03;5.38;;;25.40;99.90;;;;;;5101004;27;20194;-67
2023/05/30 09:44:05;;;;;;;5.78;5.18;;;25.40;99.90;;;;;;5099790;27;20864;-67
2023/05/30 09:46:34;;;;;;;5.88;5.38;;;25.30;99.90;;;;;;5100897;27;20206;-67
2023/05/30 09:49:11;;;;;;;6.20;5.60;;;25.10;99.90;;;;;;5102615;27;20221;-67
2023/05/30 09:51:39;;;;;;;5.60;5.10;;;24.90;99.90;;;;;;5102911;27;20188;-67
2023/05/30 09:54:09;;;;;;;5.95;5.38;;;24.70;99.90;;;;;;5100194;27;20316;-67
2023/05/30 09:56:36;;;;;;;5.40;4.90;;;24.70;99.90;;;;;;5100873;28;20213;-67
2023/05/30 09:59:08;;;;;;;5.70;5.20;;;24.90;99.90;;;;;;5101036;27;20288;-67
2023/05/30 10:01:39;;;;;;;5.78;5.13;;;25.30;99.90;;;;;;5097347;28;20677;-67
2023/05/30 10:04:14;;;;;;;5.57;5.10;;;25.50;99.90;;;;;;5102305;27;20256;-67
2023/05/30 10:06:44;;;;;;;6.65;5.18;;;25.80;99.90;;;;;;5099441;28;20388;-67
2023/05/30 10:09:12;;;;;;;6.68;5.50;;;26.20;99.90;;;;;;5098888;28;20229;-67
2023/05/30 10:11:41;;;;;;;6.20;5.43;;;26.40;99.90;;;;;;5098624;27;20212;-67
2023/05/30 10:14:11;;;;;;;4.95;4.40;;;26.30;99.90;;;;;;5101083;27;20304;-67
2023/05/30 10:16:48;;;;;;;4.97;4.57;;;26.30;99.90;;;;;;5099529;27;20204;-67
2023/05/30 10:19:20;;;;;;;5.15;4.65;;;26.50;99.90;;;;;;5097092;27;20193;-68
2023/05/30 10:21:48;;;;;;;6.15;5.10;;;26.70;99.90;;;;;;5102573;27;20205;-67
2023/05/30 10:24:16;;;;;;;5.70;4.95;;;26.80;99.90;;;;;;5096012;28;20244;-68
2023/05/30 10:26:50;;;;;;;5.57;5.07;;;26.60;99.90;;;;;;5099794;28;20470;-67
2023/05/30 10:29:22;;;;;;;6.20;5.60;;;26.70;99.90;;;;;;5107878;27;20192;-68
2023/05/30 10:31:52;;;;;;;5.72;5.13;;;26.50;99.90;;;;;;5077610;28;20204;-67
2023/05/30 10:34:24;;;;;;;5.43;4.93;;;26.40;99.90;;;;;;5098758;28;20224;-67
2023/05/30 10:36:53;;;;;;;4.72;4.32;;;26.30;99.90;;;;;;5097869;28;20278;-67
2023/05/30 10:39:31;;;;;;;6.03;5.43;;;26.40;99.90;;;;;;5102674;27;20197;-67
2023/05/30 10:42:03;;;;;;;5.40;4.90;;;26.40;99.90;;;;;;5096183;28;20193;-67
2023/05/30 10:44:41;;;;;;;4.70;4.30;;;26.40;99.90;;;;;;5094071;28;20236;-67
2023/05/30 10:47:21;;;;;;;6.28;4.93;;;26.50;99.90;;;;;;5112004;28;20209;-67
2023/05/30 10:49:49;;;;;;;5.50;4.80;;;26.60;99.90;;;;;;5110944;28;20201;-68
2023/05/30 10:52:17;;;;;;;4.95;4.25;;;26.60;99.90;;;;;;5099574;28;20200;-68
2023/05/30 10:54:46;;;;;;;5.07;4.68;;;26.70;99.90;;;;;;5092507;28;20626;-68
2023/05/30 10:57:26;;;;;;;5.32;4.57;;;26.70;99.90;;;;;;5104098;28;20201;-67
2023/05/30 10:59:56;;;;;;;4.50;4.10;;;26.60;99.90;;;;;;5097222;28;20196;-67
2023/05/30 11:02:35;;;;;;;6.68;4.63;;;26.70;99.90;;;;;;5097814;28;20240;-68
2023/05/30 11:05:06;;;;;;;5.50;5.00;;;26.80;99.90;;;;;;5098497;28;20206;-68
2023/05/30 11:07:36;;;;;;;5.90;4.50;;;26.60;99.90;;;;;;5097293;28;20204;-68
2023/05/30 11:10:04;;;;;;;6.30;4.78;;;26.60;99.90;;;;;;5098779;28;20197;-68
2023/05/30 11:12:31;;;;;;;5.10;4.65;;;26.60;99.90;;;;;;5101848;28;20224;-68
2023/05/30 11:15:01;;;;;;;6.18;5.30;;;26.60;99.90;;;;;;5095460;28;20309;-68
2023/05/30 11:17:34;;;;;;;6.93;5.20;;;26.50;99.90;;;;;;5097199;28;20288;-68
2023/05/30 11:20:09;;;;;;;5.30;4.80;;;26.60;99.90;;;;;;5102781;28;20285;-68
2023/05/30 11:22:38;;;;;;;5.80;4.90;;;26.60;99.90;;;;;;5092612;28;20212;-68
2023/05/30 11:25:30;;;;;;;6.93;5.40;;;26.70;99.90;;;;;;5098884;28;20216;-67
2023/05/30 11:28:01;;;;;;;5.90;4.97;;;26.40;99.90;;;;;;5085193;28;20208;-67
2023/05/30 11:30:30;;;;;;;5.22;4.72;;;26.30;99.90;;;;;;5095837;28;20236;-68
2023/05/30 11:32:59;;;;;;;5.38;4.88;;;26.30;99.90;;;;;;5094387;28;20312;-67
2023/05/30 11:35:26;;;;;;;4.85;4.45;;;26.10;99.90;;;;;;5100117;28;20203;-68
2023/05/30 11:37:54;;;;;;;5.65;5.15;;;25.80;99.90;;;;;;5095182;28;20232;-67
2023/05/30 11:40:22;;;;;;;5.28;4.78;;;25.70;99.90;;;;;;5098737;28;20201;-67
2023/05/30 11:42:52;;;;;;;4.88;4.47;;;25.50;99.90;;;;;;5103724;28;20249;-67
2023/05/30 11:45:20;;;;;;;5.35;4.85;;;25.50;99.90;;;;;;5099538;28;20203;-67
2023/05/30 11:47:48;;;;;;;5.40;4.90;;;25.50;99.90;;;;;;5093650;28;20608;-67
2023/05/30 11:50:15;;;;;;;5.30;4.85;;;25.40;99.90;;;;;;5100374;28;20308;-67
2023/05/30 11:52:43;;;;;;;10.27;5.13;;;25.50;99.90;;;;;;5101474;28;20216;-67
2023/05/30 11:55:10;;;;;;;5.35;4.85;;;25.90;99.90;;;;;;5100290;27;20573;-67
2023/05/30 11:57:37;;;;;;;5.03;4.60;;;26.20;99.90;;;;;;5098968;28;20292;-68
2023/05/30 12:00:08;;;;;;;7.70;5.57;;;26.20;99.90;;;;;;5100569;27;20760;-67
2023/05/30 12:02:35;;;;;;;5.57;4.78;;;26.20;99.90;;;;;;5102008;27;20282;-69
2023/05/30 12:05:04;;;;;;;9.50;4.70;;;26.10;99.90;;;;;;5101759;28;20193;-68
2023/05/30 12:07:31;;;;;;;5.32;4.85;;;26.10;99.90;;;;;;5094594;28;20305;-67
2023/05/30 12:09:59;;;;;;;5.13;4.72;;;26.10;99.90;;;;;;5101191;28;20571;-68
2023/05/30 12:12:26;;;;;;;5.35;4.85;;;26.00;99.90;;;;;;5101672;27;20304;-68
2023/05/30 12:15:04;;;;;;;5.05;4.65;;;26.00;99.90;;;;;;5104022;27;20217;-68
2023/05/30 12:17:31;;;;;;;6.10;4.80;;;26.20;99.90;;;;;;5104288;27;20200;-68
2023/05/30 12:20:00;;;;;;;4.88;4.20;;;26.40;99.90;;;;;;5100742;28;20221;-69
2023/05/30 12:22:30;;;;;;;5.10;4.70;;;26.50;99.90;;;;;;5102694;27;20220;-69
2023/05/30 12:24:58;;;;;;;7.18;5.10;;;26.80;99.90;;;;;;5125145;27;20264;-69
2023/05/30 12:27:27;;;;;;;7.10;5.28;;;26.90;99.90;;;;;;5107894;27;20205;-68
2023/05/30 12:29:54;;;;;;;5.70;5.20;;;27.00;99.90;;;;;;5103958;28;20213;-68
2023/05/30 12:32:28;;;;;;;5.65;5.15;;;27.10;99.90;;;;;;5102105;28;20546;-68
2023/05/30 12:34:59;;;;;;;5.78;5.28;;;27.00;99.90;;;;;;5090867;27;20206;-68
2023/05/30 12:37:26;;;;;;;5.85;5.35;;;26.70;99.90;;;;;;5094155;28;20194;-68
2023/05/30 12:39:57;;;;;;;5.10;4.60;;;26.70;99.90;;;;;;5094267;28;20772;-68
2023/05/30 12:42:25;;;;;;;5.72;4.50;;;26.60;99.90;;;;;;5093395;28;20800;-68
2023/05/30 12:44:53;;;;;;;5.57;4.70;;;26.70;99.90;;;;;;5095012;27;20654;-68
2023/05/30 12:47:21;;;;;;;6.10;5.50;;;26.70;99.90;;;;;;5099592;28;20759;-68
2023/05/30 12:49:48;;;;;;;5.68;5.00;;;26.80;99.90;;;;;;5092904;27;20198;-68
2023/05/30 12:52:18;;;;;;;5.47;4.90;;;26.90;99.90;;;;;;5099164;27;20208;-69
2023/05/30 12:54:45;;;;;;;5.50;4.90;;;26.90;99.90;;;;;;5100910;27;20634;-68